Time;durP1;ratioP1;P1;durP2;ratioP2;P2;SDS_P1;SDS_P2;PMS_P1;PMS_P2;Temp;Humidity;BMP_temperature;BMP_pressure;BME280_temperature;BME280_humidity;BME280_pressure;Samples;Min_cycle;Max_cycle;Signal;HPM_P1;HPM_P2
2023/04/15 00:00:58;;;;;;;2.53;1.10;;;17.80;49.00;;;;;;6312304;22;20166;-84
2023/04/15 00:03:24;;;;;;;0.80;0.80;;;17.80;49.00;;;;;;6339828;22;20191;-84
2023/04/15 00:05:55;;;;;;;1.10;0.90;;;17.80;49.00;;;;;;6312270;22;20159;-84
2023/04/15 00:08:21;;;;;;;1.98;1.02;;;17.80;49.00;;;;;;6234742;22;20151;-84
2023/04/15 00:10:47;;;;;;;1.20;1.05;;;17.80;49.00;;;;;;6312143;22;20206;-84
2023/04/15 00:13:12;;;;;;;1.17;1.05;;;17.70;49.00;;;;;;6312212;22;20181;-84
2023/04/15 00:15:38;;;;;;;1.23;0.90;;;17.80;49.10;;;;;;6311967;22;20697;-84
2023/04/15 00:18:04;;;;;;;1.65;0.80;;;17.80;49.00;;;;;;6340108;22;20229;-85
2023/04/15 00:20:31;;;;;;;1.00;0.90;;;17.90;49.00;;;;;;6339934;22;20208;-84
2023/04/15 00:22:59;;;;;;;1.05;0.90;;;17.80;49.10;;;;;;6339896;22;20198;-85
2023/04/15 00:25:25;;;;;;;1.33;1.00;;;17.70;49.10;;;;;;6312687;22;20182;-84
2023/04/15 00:27:51;;;;;;;1.52;1.00;;;17.80;49.10;;;;;;6339616;22;20139;-84
2023/04/15 00:30:17;;;;;;;1.38;1.10;;;17.80;49.10;;;;;;6312097;22;20127;-85
2023/04/15 00:32:43;;;;;;;1.23;1.13;;;17.80;49.10;;;;;;6339263;22;20487;-84
2023/04/15 00:35:10;;;;;;;1.23;1.02;;;17.70;49.20;;;;;;6286568;22;20139;-85
2023/04/15 00:37:36;;;;;;;1.13;0.80;;;17.70;49.10;;;;;;6311942;22;20130;-85
2023/04/15 00:40:05;;;;;;;0.98;0.88;;;17.80;49.20;;;;;;6286870;22;20636;-85
2023/04/15 00:42:31;;;;;;;1.00;0.90;;;17.80;49.20;;;;;;6287132;22;20147;-84
2023/04/15 00:44:56;;;;;;;0.85;0.85;;;17.70;49.10;;;;;;6312130;22;20207;-84
2023/04/15 00:47:23;;;;;;;2.38;0.90;;;17.80;49.20;;;;;;6311767;22;20132;-84
2023/04/15 00:49:48;;;;;;;1.17;1.08;;;17.70;49.20;;;;;;6285835;22;20151;-85
2023/04/15 00:52:14;;;;;;;1.20;1.10;;;17.70;49.20;;;;;;6311977;22;20131;-84
2023/04/15 00:54:46;;;;;;;1.08;0.88;;;17.70;49.20;;;;;;6285947;22;20146;-84
2023/04/15 00:57:12;;;;;;;0.98;0.88;;;17.80;49.30;;;;;;6209329;22;20182;-84
2023/04/15 00:59:38;;;;;;;1.10;0.90;;;17.80;49.20;;;;;;6311835;22;20563;-84
2023/04/15 01:02:08;;;;;;;1.58;1.02;;;17.70;49.10;;;;;;6285764;22;20146;-84
2023/04/15 01:04:34;;;;;;;1.20;0.90;;;17.80;49.20;;;;;;6234332;22;20199;-85
2023/04/15 01:07:01;;;;;;;1.58;1.10;;;17.70;49.20;;;;;;6311886;22;20147;-84
2023/04/15 01:09:27;;;;;;;0.93;0.80;;;17.70;49.20;;;;;;6311719;22;20131;-84
2023/04/15 01:11:53;;;;;;;1.45;0.90;;;17.70;49.30;;;;;;6312244;22;20185;-85
2023/04/15 01:14:18;;;;;;;0.95;0.90;;;17.70;49.30;;;;;;6310958;22;20266;-84
2023/04/15 01:16:44;;;;;;;2.03;1.10;;;17.80;49.30;;;;;;6260045;22;20151;-84
2023/04/15 01:19:11;;;;;;;0.85;0.80;;;17.70;49.40;;;;;;6311731;22;20155;-84
2023/04/15 01:21:38;;;;;;;0.85;0.80;;;17.70;49.30;;;;;;6311473;22;20131;-84
2023/04/15 01:24:07;;;;;;;1.20;1.10;;;17.70;49.40;;;;;;6339449;22;20128;-85
2023/04/15 01:26:33;;;;;;;1.02;0.95;;;17.70;49.40;;;;;;6285876;22;20147;-84
2023/04/15 01:29:00;;;;;;;1.20;1.10;;;17.70;49.30;;;;;;6311868;22;20139;-84
2023/04/15 01:31:26;;;;;;;1.13;0.90;;;17.60;49.30;;;;;;6312486;22;20197;-85
2023/04/15 01:33:52;;;;;;;1.10;1.00;;;17.70;49.30;;;;;;6338980;22;20158;-85
2023/04/15 01:36:18;;;;;;;1.00;0.90;;;17.70;49.30;;;;;;6339102;22;20138;-84
2023/04/15 01:38:44;;;;;;;2.40;0.93;;;17.70;49.30;;;;;;6311616;22;20134;-84
2023/04/15 01:41:10;;;;;;;1.27;1.13;;;17.70;49.40;;;;;;6311404;22;20150;-84
2023/04/15 01:43:36;;;;;;;0.90;0.90;;;17.60;49.40;;;;;;6339785;22;20210;-84
2023/04/15 01:46:02;;;;;;;1.30;1.00;;;17.70;49.40;;;;;;6313772;22;20177;-85
2023/04/15 01:48:28;;;;;;;1.33;1.02;;;17.70;49.40;;;;;;6287723;22;20151;-84
2023/04/15 01:50:56;;;;;;;1.58;1.20;;;17.60;49.40;;;;;;6313610;22;20166;-84
2023/04/15 01:53:24;;;;;;;2.20;1.00;;;17.60;49.30;;;;;;6313969;22;20162;-84
2023/04/15 01:55:50;;;;;;;1.35;1.08;;;17.70;49.40;;;;;;6313758;22;20636;-84
2023/04/15 01:58:17;;;;;;;1.25;0.98;;;17.70;49.40;;;;;;6313567;22;20458;-84
2023/04/15 02:00:44;;;;;;;0.88;0.88;;;17.70;49.40;;;;;;6313346;22;20483;-84
2023/04/15 02:03:10;;;;;;;1.17;1.08;;;17.70;49.40;;;;;;6313887;22;20134;-85
2023/04/15 02:05:36;;;;;;;1.30;1.10;;;17.70;49.50;;;;;;6287531;22;20594;-84
2023/04/15 02:08:05;;;;;;;1.05;0.95;;;17.60;49.40;;;;;;6313487;22;20173;-85
2023/04/15 02:10:35;;;;;;;1.27;1.02;;;17.60;49.40;;;;;;6261551;22;20151;-85
2023/04/15 02:13:01;;;;;;;1.05;0.90;;;17.60;49.40;;;;;;6261268;22;20185;-84
2023/04/15 02:15:27;;;;;;;1.42;1.00;;;17.60;49.40;;;;;;6313107;22;20179;-85
2023/04/15 02:17:54;;;;;;;1.20;1.10;;;17.60;49.40;;;;;;6313651;22;20136;-84
2023/04/15 02:20:20;;;;;;;2.42;1.00;;;17.60;49.40;;;;;;6287458;22;20605;-84
2023/04/15 02:22:51;;;;;;;1.20;1.10;;;17.70;49.40;;;;;;6312967;22;20151;-85
2023/04/15 02:25:20;;;;;;;1.65;1.20;;;17.70;49.40;;;;;;6261930;22;20213;-84
2023/04/15 02:27:46;;;;;;;1.27;1.00;;;17.70;49.40;;;;;;6235743;22;20159;-84
2023/04/15 02:30:12;;;;;;;1.65;1.15;;;17.70;49.40;;;;;;6312962;22;20131;-85
2023/04/15 02:32:43;;;;;;;1.10;1.00;;;17.60;49.50;;;;;;6287551;22;20606;-84
2023/04/15 02:35:10;;;;;;;1.52;1.25;;;17.60;49.50;;;;;;6231378;22;20152;-85
2023/04/15 02:37:42;;;;;;;1.05;0.95;;;17.60;49.40;;;;;;6307310;22;20578;-84
2023/04/15 02:40:10;;;;;;;1.38;1.00;;;17.70;49.50;;;;;;6314664;22;20589;-84
2023/04/15 02:42:37;;;;;;;1.00;0.90;;;17.60;49.40;;;;;;6288250;22;20148;-84
2023/04/15 02:45:03;;;;;;;1.60;1.15;;;17.60;49.50;;;;;;6287025;22;20205;-85
2023/04/15 02:47:29;;;;;;;1.23;1.10;;;17.60;49.50;;;;;;6340608;22;20136;-84
2023/04/15 02:49:57;;;;;;;0.82;0.80;;;17.60;50.20;;;;;;6340338;22;20142;-84
2023/04/15 02:52:23;;;;;;;1.92;1.00;;;17.60;49.60;;;;;;6313180;22;20135;-84
2023/04/15 02:54:49;;;;;;;1.88;1.00;;;17.60;49.50;;;;;;6340163;22;20604;-84
2023/04/15 02:57:15;;;;;;;1.17;1.08;;;17.60;49.60;;;;;;6286825;22;20135;-84
2023/04/15 02:59:41;;;;;;;0.98;0.90;;;17.60;50.20;;;;;;6340249;22;20127;-84
2023/04/15 03:02:07;;;;;;;1.30;1.13;;;17.60;49.40;;;;;;6313200;22;20128;-85
2023/04/15 03:04:37;;;;;;;1.30;1.08;;;17.60;49.50;;;;;;6287127;22;20224;-85
2023/04/15 03:07:03;;;;;;;3.35;1.20;;;17.60;49.50;;;;;;6235831;22;20164;-85
2023/04/15 03:09:29;;;;;;;1.10;1.00;;;17.60;49.50;;;;;;6340823;22;20420;-84
2023/04/15 03:11:55;;;;;;;1.73;1.30;;;17.60;49.60;;;;;;6287503;22;20571;-84
2023/04/15 03:14:21;;;;;;;1.13;1.00;;;17.60;49.60;;;;;;6312307;22;20521;-84
2023/04/15 03:16:49;;;;;;;1.08;0.98;;;17.60;49.50;;;;;;6312669;22;20127;-85
2023/04/15 03:19:15;;;;;;;1.20;1.05;;;17.60;49.50;;;;;;6340136;22;20551;-84
2023/04/15 03:21:41;;;;;;;1.10;1.00;;;17.60;49.50;;;;;;6286779;22;20193;-85
2023/04/15 03:24:07;;;;;;;1.08;0.98;;;17.60;49.60;;;;;;6312638;22;20147;-85
2023/04/15 03:26:33;;;;;;;1.30;1.20;;;17.60;49.70;;;;;;6312857;22;20136;-84
2023/04/15 03:28:59;;;;;;;1.20;1.10;;;17.50;49.70;;;;;;6287177;22;20485;-85
2023/04/15 03:31:25;;;;;;;1.45;0.90;;;17.50;49.60;;;;;;6312959;22;20234;-84
2023/04/15 03:33:51;;;;;;;1.38;1.00;;;17.60;49.60;;;;;;6312772;22;20575;-84
2023/04/15 03:36:17;;;;;;;2.03;0.90;;;17.60;49.60;;;;;;6312575;22;20469;-85
2023/04/15 03:38:43;;;;;;;0.95;0.95;;;17.60;49.80;;;;;;6339932;22;20496;-84
2023/04/15 03:41:09;;;;;;;1.48;0.90;;;17.60;49.70;;;;;;6286445;22;20135;-84
2023/04/15 03:43:34;;;;;;;1.15;0.95;;;17.60;49.60;;;;;;6312708;22;20151;-85
2023/04/15 03:46:01;;;;;;;1.23;1.00;;;17.60;49.70;;;;;;6312897;22;20148;-84
2023/04/15 03:48:27;;;;;;;1.20;1.05;;;17.60;49.80;;;;;;6340106;22;20261;-85
2023/04/15 03:50:57;;;;;;;1.25;1.15;;;17.60;49.80;;;;;;6312239;22;20213;-84
2023/04/15 03:53:23;;;;;;;1.27;1.00;;;17.60;49.80;;;;;;6210078;22;20175;-84
2023/04/15 03:55:49;;;;;;;1.63;1.27;;;17.60;49.70;;;;;;6339805;22;20138;-84
2023/04/15 03:58:15;;;;;;;1.58;1.08;;;17.50;49.80;;;;;;6339938;22;20462;-84
2023/04/15 04:00:41;;;;;;;1.25;1.13;;;17.50;49.80;;;;;;6286486;22;20143;-84
2023/04/15 04:03:07;;;;;;;2.20;1.33;;;17.50;49.80;;;;;;6312271;22;20466;-85
2023/04/15 04:05:35;;;;;;;2.05;1.05;;;17.60;49.80;;;;;;6339692;22;20273;-84
2023/04/15 04:08:01;;;;;;;1.25;1.10;;;17.50;49.80;;;;;;6312102;22;20128;-85
2023/04/15 04:10:27;;;;;;;1.55;1.13;;;17.50;50.40;;;;;;6312059;22;20139;-84
2023/04/15 04:12:53;;;;;;;1.73;1.13;;;17.50;49.70;;;;;;6285970;22;20175;-84
2023/04/15 04:15:19;;;;;;;1.08;0.95;;;17.60;50.50;;;;;;6285877;22;20626;-84
2023/04/15 04:17:45;;;;;;;1.25;1.15;;;17.50;49.80;;;;;;6312099;22;20127;-84
2023/04/15 04:20:11;;;;;;;1.33;1.17;;;17.50;49.80;;;;;;6312884;22;20166;-84
2023/04/15 04:22:40;;;;;;;1.27;1.00;;;17.50;49.80;;;;;;6286540;22;20230;-84
2023/04/15 04:25:07;;;;;;;1.52;1.10;;;17.50;49.80;;;;;;6339909;22;20206;-84
2023/04/15 04:27:33;;;;;;;1.20;1.10;;;17.50;49.70;;;;;;6312254;22;20132;-84
2023/04/15 04:29:59;;;;;;;1.02;0.93;;;17.50;49.80;;;;;;6312306;22;20128;-84
2023/04/15 04:32:25;;;;;;;0.98;0.90;;;17.50;50.40;;;;;;6339237;22;20127;-84
2023/04/15 04:34:51;;;;;;;1.00;0.90;;;17.50;49.80;;;;;;6311901;22;20494;-84
2023/04/15 04:37:17;;;;;;;1.30;0.90;;;17.60;49.80;;;;;;6285976;22;20147;-84
2023/04/15 04:39:43;;;;;;;1.25;0.93;;;17.50;49.80;;;;;;6311606;22;20285;-84
2023/04/15 04:42:09;;;;;;;1.35;1.00;;;17.50;49.80;;;;;;6311576;22;20513;-84
2023/04/15 04:44:35;;;;;;;1.77;1.05;;;17.60;49.80;;;;;;6339532;22;20131;-84
2023/04/15 04:47:01;;;;;;;1.90;1.00;;;17.50;49.80;;;;;;6311688;22;20140;-84
2023/04/15 04:49:27;;;;;;;1.17;1.02;;;17.50;49.80;;;;;;6339251;22;20184;-84
2023/04/15 04:51:53;;;;;;;1.20;1.10;;;17.50;49.80;;;;;;6311970;22;20226;-84
2023/04/15 04:54:20;;;;;;;1.20;1.10;;;17.50;49.80;;;;;;6311461;22;20550;-84
2023/04/15 04:56:46;;;;;;;2.30;1.27;;;17.40;49.70;;;;;;6311670;22;20486;-84
2023/04/15 04:59:12;;;;;;;1.05;0.95;;;17.50;49.80;;;;;;6339405;22;20127;-84
2023/04/15 05:01:38;;;;;;;1.35;1.20;;;17.50;49.90;;;;;;6339294;22;20628;-84
2023/04/15 05:04:04;;;;;;;1.52;1.08;;;17.50;49.80;;;;;;6285486;22;20640;-84
2023/04/15 05:06:31;;;;;;;1.00;0.90;;;17.50;49.80;;;;;;6286463;22;20155;-84
2023/04/15 05:08:57;;;;;;;1.27;1.00;;;17.60;49.90;;;;;;6311761;22;20182;-84
2023/04/15 05:11:23;;;;;;;0.98;0.88;;;17.50;49.80;;;;;;6311861;22;20139;-84
2023/04/15 05:13:48;;;;;;;1.42;1.20;;;17.60;49.70;;;;;;6311214;22;20163;-85
2023/04/15 05:16:15;;;;;;;1.30;1.13;;;17.50;49.70;;;;;;6339166;22;20132;-84
2023/04/15 05:18:41;;;;;;;1.20;1.10;;;17.60;49.70;;;;;;6285823;22;20143;-85
2023/04/15 05:21:07;;;;;;;1.50;0.95;;;17.60;49.60;;;;;;6311460;22;20211;-85
2023/04/15 05:23:33;;;;;;;1.25;1.08;;;17.60;49.60;;;;;;6311493;22;20632;-84
2023/04/15 05:25:59;;;;;;;1.33;1.10;;;17.60;49.50;;;;;;6311363;22;20160;-84
2023/04/15 05:28:26;;;;;;;0.93;0.88;;;17.60;49.40;;;;;;6339151;22;20142;-84
2023/04/15 05:30:52;;;;;;;1.40;1.20;;;17.60;49.60;;;;;;6311924;22;20173;-84
2023/04/15 05:33:18;;;;;;;1.73;1.17;;;17.60;49.50;;;;;;6311236;22;20175;-84
2023/04/15 05:35:44;;;;;;;1.17;1.08;;;17.60;49.40;;;;;;6339060;22;20159;-85
2023/04/15 05:38:10;;;;;;;1.17;1.00;;;17.60;49.40;;;;;;6338917;22;20127;-84
2023/04/15 05:40:36;;;;;;;1.45;1.20;;;17.70;49.50;;;;;;6311233;22;20206;-85
2023/04/15 05:43:02;;;;;;;1.20;1.10;;;17.60;49.40;;;;;;6285843;22;20224;-84
2023/04/15 05:45:28;;;;;;;1.92;1.05;;;17.60;49.40;;;;;;6339039;22;20135;-84
2023/04/15 05:47:53;;;;;;;1.20;1.00;;;17.60;49.50;;;;;;6285778;22;20163;-85
2023/04/15 05:50:20;;;;;;;1.30;1.00;;;17.70;49.40;;;;;;6311196;22;20177;-85
2023/04/15 05:52:45;;;;;;;1.10;1.00;;;17.70;49.40;;;;;;6285497;22;20187;-85
2023/04/15 05:55:11;;;;;;;1.00;0.88;;;17.70;49.30;;;;;;6285547;22;20582;-85
2023/04/15 05:57:37;;;;;;;1.30;1.20;;;17.70;49.30;;;;;;6311183;22;20132;-85
2023/04/15 06:00:04;;;;;;;1.25;0.98;;;17.70;49.30;;;;;;6311211;22;20139;-85
2023/04/15 06:02:30;;;;;;;1.20;1.10;;;17.70;49.40;;;;;;6285540;22;20462;-85
2023/04/15 06:04:56;;;;;;;1.17;1.05;;;17.70;49.40;;;;;;6259972;22;20166;-85
2023/04/15 06:07:22;;;;;;;2.08;1.10;;;17.80;49.30;;;;;;6259933;22;20146;-85
2023/04/15 06:09:48;;;;;;;1.20;1.10;;;17.80;49.20;;;;;;6285832;22;20142;-85
2023/04/15 06:12:14;;;;;;;1.42;1.30;;;17.80;49.20;;;;;;6338563;22;20128;-85
2023/04/15 06:14:40;;;;;;;1.30;1.20;;;17.80;49.20;;;;;;6260033;22;20202;-85
2023/04/15 06:17:06;;;;;;;1.00;0.90;;;17.80;49.20;;;;;;6285467;22;20128;-84
2023/04/15 06:19:32;;;;;;;1.30;1.10;;;17.80;49.10;;;;;;6311243;22;20161;-84
2023/04/15 06:21:58;;;;;;;1.25;1.15;;;17.90;49.20;;;;;;6285441;22;20202;-85
2023/04/15 06:24:23;;;;;;;1.60;1.20;;;17.80;49.10;;;;;;6260102;22;20193;-85
2023/04/15 06:26:49;;;;;;;1.25;1.10;;;17.80;48.90;;;;;;6338660;22;20131;-85
2023/04/15 06:29:15;;;;;;;1.60;1.10;;;17.90;48.90;;;;;;6285230;22;20578;-85
2023/04/15 06:31:40;;;;;;;1.30;1.05;;;17.90;48.80;;;;;;6340096;22;20132;-85
2023/04/15 06:34:06;;;;;;;1.70;1.10;;;17.90;48.80;;;;;;6287279;22;20235;-85
2023/04/15 06:36:32;;;;;;;1.50;0.98;;;17.90;48.70;;;;;;6313310;22;20479;-84
2023/04/15 06:38:58;;;;;;;1.90;1.20;;;17.90;48.70;;;;;;6287287;22;20132;-85
2023/04/15 06:41:23;;;;;;;1.60;1.30;;;18.00;48.70;;;;;;6286929;22;20131;-85
2023/04/15 06:43:49;;;;;;;2.03;1.10;;;18.00;48.70;;;;;;6288967;22;20172;-85
2023/04/15 06:46:22;;;;;;;1.40;1.15;;;17.90;48.70;;;;;;6287469;22;20210;-84
2023/04/15 06:48:48;;;;;;;1.30;1.10;;;18.00;48.60;;;;;;6260482;22;20181;-85
2023/04/15 06:51:14;;;;;;;1.67;1.15;;;18.10;48.60;;;;;;6312743;22;20132;-85
2023/04/15 06:53:41;;;;;;;1.02;0.93;;;18.00;48.70;;;;;;6287333;22;20166;-85
2023/04/15 06:56:08;;;;;;;2.40;1.00;;;18.00;48.70;;;;;;6287706;22;20551;-85
2023/04/15 06:58:34;;;;;;;3.75;1.10;;;18.00;48.60;;;;;;6286570;22;20136;-85
2023/04/15 07:01:00;;;;;;;2.08;1.35;;;18.10;48.60;;;;;;6287133;22;20618;-84
2023/04/15 07:03:26;;;;;;;2.83;1.40;;;18.00;48.60;;;;;;6290367;22;20146;-84
2023/04/15 07:05:52;;;;;;;6.30;1.65;;;18.00;48.60;;;;;;6288888;22;20151;-84
2023/04/15 07:08:20;;;;;;;4.00;1.20;;;18.00;48.60;;;;;;6287068;22;20215;-85
2023/04/15 07:10:48;;;;;;;4.32;1.10;;;18.00;48.50;;;;;;6235977;22;20242;-84
2023/04/15 07:13:14;;;;;;;3.75;1.23;;;18.00;48.50;;;;;;6236346;22;20194;-84
2023/04/15 07:15:39;;;;;;;2.50;1.17;;;18.10;48.60;;;;;;6287545;22;20191;-84
2023/04/15 07:18:05;;;;;;;4.00;1.30;;;18.10;48.60;;;;;;6262297;22;20585;-86
2023/04/15 07:20:38;;;;;;;3.28;1.40;;;18.10;48.50;;;;;;6287505;22;20162;-84
2023/04/15 07:23:04;;;;;;;2.30;1.17;;;18.10;48.50;;;;;;6235769;22;20205;-84
2023/04/15 07:25:30;;;;;;;2.35;1.15;;;18.20;48.40;;;;;;6313537;22;20489;-84
2023/04/15 07:27:55;;;;;;;6.28;1.40;;;18.20;48.30;;;;;;6261491;22;20475;-84
2023/04/15 07:30:22;;;;;;;2.25;1.23;;;18.30;48.20;;;;;;6287358;22;20584;-85
2023/04/15 07:32:47;;;;;;;3.15;1.20;;;18.20;48.20;;;;;;6313804;22;20171;-85
2023/04/15 07:35:13;;;;;;;4.07;1.30;;;18.20;48.20;;;;;;6312858;22;20463;-85
2023/04/15 07:37:42;;;;;;;1.60;1.10;;;18.30;48.00;;;;;;6287250;22;20139;-84
2023/04/15 07:40:13;;;;;;;1.65;1.30;;;18.30;48.20;;;;;;6235639;22;20523;-84
2023/04/15 07:42:42;;;;;;;2.92;1.60;;;18.20;48.20;;;;;;6262146;22;20144;-84
2023/04/15 07:45:12;;;;;;;2.08;1.10;;;18.20;48.30;;;;;;6210282;22;20147;-85
2023/04/15 07:47:41;;;;;;;3.08;1.20;;;18.30;48.10;;;;;;6261567;22;20147;-84
2023/04/15 07:50:11;;;;;;;3.00;1.42;;;18.30;48.00;;;;;;6260998;22;20147;-84
2023/04/15 07:52:39;;;;;;;1.15;1.05;;;18.20;47.90;;;;;;6263682;22;20147;-85
2023/04/15 07:55:08;;;;;;;1.88;0.93;;;18.30;47.90;;;;;;6237990;22;20154;-86
2023/04/15 07:57:37;;;;;;;3.58;1.17;;;18.40;47.80;;;;;;6213895;22;20545;-86
2023/04/15 08:00:04;;;;;;;2.65;1.20;;;18.30;47.90;;;;;;6238222;22;20143;-83
2023/04/15 08:02:32;;;;;;;11.15;2.33;;;18.20;48.00;;;;;;6289909;22;20128;-84
2023/04/15 08:05:02;;;;;;;8.23;1.90;;;18.30;48.00;;;;;;6264222;22;20166;-86
2023/04/15 08:07:27;;;;;;;18.25;2.33;;;18.40;47.70;;;;;;6266510;22;20247;-84
2023/04/15 08:09:53;;;;;;;24.02;2.30;;;18.40;47.70;;;;;;6287143;22;20139;-84
2023/04/15 08:12:24;;;;;;;13.23;2.10;;;18.40;47.70;;;;;;6313725;22;20181;-85
2023/04/15 08:14:54;;;;;;;12.55;2.08;;;18.50;47.40;;;;;;6219904;23;20264;-84
2023/04/15 08:17:20;;;;;;;19.30;2.35;;;18.50;47.40;;;;;;6169859;23;20266;-84
2023/04/15 08:19:47;;;;;;;8.25;1.83;;;18.70;47.20;;;;;;6195738;23;20527;-83
2023/04/15 08:22:13;;;;;;;14.13;2.17;;;18.70;47.00;;;;;;6219824;23;20145;-84
2023/04/15 08:24:38;;;;;;;6.60;1.80;;;18.70;46.90;;;;;;6245560;23;20195;-84
2023/04/15 08:27:04;;;;;;;7.35;2.00;;;18.70;47.00;;;;;;6222850;23;20147;-85
2023/04/15 08:29:31;;;;;;;9.07;1.60;;;18.60;47.00;;;;;;6198763;23;20152;-84
2023/04/15 08:31:58;;;;;;;5.80;1.50;;;18.70;47.00;;;;;;6200186;23;20232;-85
2023/04/15 08:34:25;;;;;;;7.25;1.50;;;18.60;47.30;;;;;;6196172;23;20242;-85
2023/04/15 08:36:51;;;;;;;5.50;1.65;;;18.60;47.20;;;;;;6221807;23;20138;-85
2023/04/15 08:39:17;;;;;;;5.65;1.60;;;18.70;47.10;;;;;;6198790;23;20628;-85
2023/04/15 08:41:50;;;;;;;9.55;1.63;;;18.70;46.80;;;;;;6196334;23;20165;-85
2023/04/15 08:44:17;;;;;;;7.47;1.63;;;18.70;46.90;;;;;;6222087;23;20609;-85
2023/04/15 08:46:43;;;;;;;8.23;1.48;;;18.70;46.90;;;;;;6225281;23;20138;-86
2023/04/15 08:49:16;;;;;;;5.60;1.30;;;18.70;46.90;;;;;;6207356;23;20168;-87
2023/04/15 08:51:46;;;;;;;8.40;1.63;;;18.70;46.90;;;;;;6209692;23;20180;-87
2023/04/15 08:54:12;;;;;;;4.53;1.30;;;18.70;46.90;;;;;;6229386;23;20231;-85
2023/04/15 08:56:39;;;;;;;7.78;1.38;;;18.80;46.80;;;;;;6224875;23;20219;-85
2023/04/15 08:59:06;;;;;;;9.48;1.30;;;18.80;46.60;;;;;;6225023;23;20209;-87
2023/04/15 09:01:32;;;;;;;6.63;1.58;;;18.80;46.90;;;;;;6204823;23;20150;-85
2023/04/15 09:04:02;;;;;;;8.15;1.92;;;18.70;46.90;;;;;;6201867;23;20502;-84
2023/04/15 09:06:29;;;;;;;4.07;1.30;;;18.70;47.00;;;;;;6228436;23;20164;-84
2023/04/15 09:08:56;;;;;;;11.40;1.80;;;18.70;47.00;;;;;;6221821;23;20237;-85
2023/04/15 09:11:22;;;;;;;10.20;1.70;;;18.60;47.40;;;;;;6287229;22;20223;-84
2023/04/15 09:13:48;;;;;;;7.80;1.63;;;18.60;47.60;;;;;;6286105;22;20544;-85
2023/04/15 09:16:14;;;;;;;11.00;1.65;;;18.50;47.70;;;;;;6312568;22;20184;-84
2023/04/15 09:18:40;;;;;;;10.55;1.58;;;18.50;47.10;;;;;;6311637;22;20530;-84
2023/04/15 09:21:08;;;;;;;13.05;2.15;;;18.60;47.50;;;;;;6286665;22;20127;-84
2023/04/15 09:23:34;;;;;;;12.10;1.70;;;18.50;47.40;;;;;;6312364;22;20132;-84
2023/04/15 09:26:01;;;;;;;8.02;1.55;;;18.50;47.50;;;;;;6286902;22;20241;-85
2023/04/15 09:28:27;;;;;;;9.43;1.70;;;18.60;46.90;;;;;;6340615;22;20177;-84
2023/04/15 09:30:57;;;;;;;5.85;1.55;;;18.60;47.30;;;;;;6286890;22;20136;-84
2023/04/15 09:33:22;;;;;;;9.93;2.00;;;18.60;47.30;;;;;;6286211;22;20258;-84
2023/04/15 09:36:01;;;;;;;10.20;1.60;;;18.60;47.70;;;;;;6312186;22;20646;-84
2023/04/15 09:38:26;;;;;;;4.70;1.40;;;18.50;47.60;;;;;;6312524;22;20155;-84
2023/04/15 09:40:52;;;;;;;8.98;1.63;;;18.50;48.10;;;;;;6312735;22;20620;-85
2023/04/15 09:43:18;;;;;;;10.07;1.52;;;18.50;47.70;;;;;;6289197;22;20131;-85
2023/04/15 09:45:52;;;;;;;9.82;1.40;;;18.60;47.40;;;;;;6260726;22;20555;-84
2023/04/15 09:48:25;;;;;;;10.15;1.58;;;18.70;47.20;;;;;;6286822;22;20563;-85
2023/04/15 09:50:52;;;;;;;6.95;1.27;;;18.70;46.70;;;;;;6287670;22;20131;-84
2023/04/15 09:53:20;;;;;;;8.43;1.40;;;18.70;47.10;;;;;;6287146;22;20614;-84
2023/04/15 09:55:53;;;;;;;8.40;1.38;;;18.70;46.80;;;;;;6312303;22;20155;-85
2023/04/15 09:58:22;;;;;;;8.65;1.50;;;18.70;46.90;;;;;;6312940;22;20151;-85
2023/04/15 10:00:49;;;;;;;4.50;1.15;;;18.70;47.20;;;;;;6286815;22;20128;-84
2023/04/15 10:03:20;;;;;;;15.32;1.50;;;18.70;47.60;;;;;;6286547;22;20184;-85
2023/04/15 10:05:47;;;;;;;5.68;1.35;;;18.70;47.30;;;;;;6287831;22;20211;-85
2023/04/15 10:08:20;;;;;;;8.70;1.42;;;18.70;47.10;;;;;;6262788;22;20151;-85
2023/04/15 10:10:47;;;;;;;5.30;1.30;;;18.70;47.30;;;;;;6263510;22;20212;-85
2023/04/15 10:13:13;;;;;;;13.60;1.27;;;18.70;47.30;;;;;;6262432;22;20459;-84
2023/04/15 10:15:41;;;;;;;4.82;1.20;;;18.70;47.80;;;;;;6287746;22;20187;-85
2023/04/15 10:18:06;;;;;;;8.10;1.65;;;18.70;47.10;;;;;;6288273;22;20503;-84
2023/04/15 10:20:32;;;;;;;6.63;1.55;;;18.70;48.00;;;;;;6261939;22;20280;-84
2023/04/15 10:22:57;;;;;;;3.92;1.40;;;18.80;46.80;;;;;;6287481;22;20473;-85
2023/04/15 10:25:23;;;;;;;7.22;1.40;;;18.80;47.40;;;;;;6313339;22;20162;-84
2023/04/15 10:27:51;;;;;;;4.30;1.08;;;18.80;47.10;;;;;;6288920;22;20144;-84
2023/04/15 10:30:17;;;;;;;5.78;1.20;;;18.80;46.70;;;;;;6288006;22;20166;-84
2023/04/15 10:32:47;;;;;;;10.50;1.40;;;18.70;47.40;;;;;;6313207;22;20132;-84
2023/04/15 10:35:17;;;;;;;8.38;1.30;;;18.70;47.40;;;;;;6260989;22;20175;-85
2023/04/15 10:37:47;;;;;;;5.10;1.58;;;18.70;47.20;;;;;;6261721;22;20147;-85
2023/04/15 10:40:33;;;;;;;5.95;1.30;;;18.70;47.50;;;;;;6236653;22;20591;-84
2023/04/15 10:43:04;;;;;;;3.08;1.20;;;18.60;47.50;;;;;;6287759;22;20166;-84
2023/04/15 10:45:36;;;;;;;3.95;1.30;;;18.70;47.30;;;;;;6236968;22;20146;-85
2023/04/15 10:48:08;;;;;;;2.85;1.30;;;18.70;47.30;;;;;;6263257;22;20158;-85
2023/04/15 10:50:39;;;;;;;2.95;1.15;;;18.70;47.00;;;;;;6212014;22;20159;-85
2023/04/15 10:53:09;;;;;;;4.43;1.13;;;18.70;47.00;;;;;;6262972;22;20175;-85
2023/04/15 10:55:39;;;;;;;6.43;1.10;;;18.70;47.60;;;;;;6237848;22;20147;-85
2023/04/15 10:58:08;;;;;;;1.42;1.05;;;18.80;47.40;;;;;;6262389;22;20151;-85
2023/04/15 11:00:41;;;;;;;4.22;1.42;;;18.70;47.90;;;;;;6261569;22;20192;-84
2023/04/15 11:03:11;;;;;;;4.78;0.90;;;18.70;47.60;;;;;;6237179;22;20162;-84
2023/04/15 11:05:55;;;;;;;5.68;1.30;;;18.70;47.00;;;;;;6261659;22;20151;-84
2023/04/15 11:08:58;;;;;;;7.40;1.05;;;18.80;47.80;;;;;;6312539;22;20448;-84
2023/04/15 11:12:01;;;;;;;3.67;1.20;;;18.70;48.00;;;;;;6235896;22;20158;-83
2023/04/15 11:14:33;;;;;;;5.18;1.30;;;18.70;48.00;;;;;;6285331;22;20643;-84
2023/04/15 11:17:02;;;;;;;4.28;1.25;;;18.70;47.70;;;;;;6312679;22;20131;-84
2023/04/15 11:19:38;;;;;;;3.17;1.15;;;18.70;47.30;;;;;;6236431;22;20534;-83
2023/04/15 11:22:14;;;;;;;3.55;0.95;;;18.80;46.90;;;;;;6236232;22;20157;-84
2023/04/15 11:24:50;;;;;;;3.85;1.23;;;18.80;47.30;;;;;;6236002;22;20155;-84
2023/04/15 11:27:23;;;;;;;6.07;1.45;;;18.80;47.10;;;;;;6196386;23;20196;-84
2023/04/15 11:29:52;;;;;;;2.97;1.05;;;18.70;46.50;;;;;;6194693;23;20160;-84
2023/04/15 11:32:22;;;;;;;3.53;1.20;;;18.80;47.10;;;;;;6169675;23;20633;-85
2023/04/15 11:34:51;;;;;;;2.25;0.90;;;18.80;47.50;;;;;;6195782;23;20195;-84
2023/04/15 11:37:26;;;;;;;5.45;1.27;;;18.70;47.60;;;;;;6194894;23;20180;-84
2023/04/15 11:39:54;;;;;;;3.47;1.10;;;18.70;47.40;;;;;;6195567;23;20160;-84
2023/04/15 11:42:22;;;;;;;2.45;1.00;;;18.60;47.60;;;;;;6195552;23;20206;-84
2023/04/15 11:45:05;;;;;;;2.90;1.20;;;18.70;47.80;;;;;;6194372;23;20569;-85
2023/04/15 11:47:35;;;;;;;4.18;1.20;;;18.60;47.80;;;;;;6219802;23;20149;-84
2023/04/15 11:50:17;;;;;;;2.47;1.25;;;18.60;47.60;;;;;;6244808;23;20156;-84
2023/04/15 11:53:03;;;;;;;4.20;1.20;;;18.60;47.20;;;;;;6194216;23;20219;-84
2023/04/15 11:55:30;;;;;;;2.40;1.10;;;18.70;47.50;;;;;;6195438;23;20149;-84
2023/04/15 11:58:13;;;;;;;2.50;1.27;;;18.70;47.20;;;;;;6222101;22;20156;-85
2023/04/15 12:00:40;;;;;;;2.85;1.40;;;18.70;47.20;;;;;;6286673;22;20146;-84
2023/04/15 12:03:23;;;;;;;3.92;1.25;;;18.70;46.90;;;;;;6340115;22;20158;-84
2023/04/15 12:06:11;;;;;;;3.90;1.45;;;18.70;47.20;;;;;;6312256;22;20151;-84
2023/04/15 12:08:57;;;;;;;4.18;1.25;;;18.70;46.90;;;;;;6312810;22;20174;-85
2023/04/15 12:11:39;;;;;;;2.42;1.30;;;18.70;47.20;;;;;;6312838;22;20214;-84
2023/04/15 12:14:12;;;;;;;1.23;1.08;;;18.60;47.00;;;;;;6313126;22;20174;-84
2023/04/15 12:16:41;;;;;;;1.55;1.10;;;18.60;47.30;;;;;;6262150;22;20478;-85
2023/04/15 12:19:10;;;;;;;2.50;1.30;;;18.70;47.20;;;;;;6286410;22;20147;-84
2023/04/15 12:21:37;;;;;;;1.25;1.13;;;18.70;47.30;;;;;;6312092;22;20127;-84
2023/04/15 12:24:05;;;;;;;3.30;1.45;;;18.60;47.20;;;;;;6312229;22;20139;-84
2023/04/15 12:26:50;;;;;;;2.72;1.10;;;18.70;47.30;;;;;;6311944;22;20159;-85
2023/04/15 12:29:23;;;;;;;2.95;1.30;;;18.70;47.00;;;;;;6312144;22;20144;-85
2023/04/15 12:31:51;;;;;;;4.72;1.08;;;18.70;46.70;;;;;;6236999;22;20583;-85
2023/04/15 12:34:18;;;;;;;3.50;1.05;;;18.80;46.80;;;;;;6286421;22;20167;-84
2023/04/15 12:36:45;;;;;;;2.97;1.30;;;18.70;46.70;;;;;;6311899;22;20462;-85
2023/04/15 12:39:10;;;;;;;3.67;1.30;;;18.70;46.80;;;;;;6312393;22;20132;-85
2023/04/15 12:41:36;;;;;;;2.00;1.10;;;18.70;47.00;;;;;;6339224;22;20535;-84
2023/04/15 12:44:02;;;;;;;2.25;1.00;;;18.70;46.80;;;;;;6340038;22;20127;-85
2023/04/15 12:46:32;;;;;;;1.25;1.00;;;18.70;47.10;;;;;;6286111;22;20226;-85
2023/04/15 12:48:58;;;;;;;2.22;1.10;;;18.70;47.00;;;;;;6260106;22;20152;-85